Time;durP1;ratioP1;P1;durP2;ratioP2;P2;SDS_P1;SDS_P2;PMS_P1;PMS_P2;Temp;Humidity;BMP_temperature;BMP_pressure;BME280_temperature;BME280_humidity;BME280_pressure;Samples;Min_cycle;Max_cycle;Signal;HPM_P1;HPM_P2
2022/05/15 00:00:37;;;;;;;3.87;3.50;;;13.50;99.90;;;;;;5023752;28;20188;-39
2022/05/15 00:03:14;;;;;;;4.17;3.70;;;13.40;99.90;;;;;;4969229;28;20664;-38
2022/05/15 00:05:41;;;;;;;3.60;3.30;;;13.40;99.90;;;;;;5009388;28;20293;-39
2022/05/15 00:08:08;;;;;;;6.20;3.47;;;13.40;99.90;;;;;;5000237;28;20177;-39
2022/05/15 00:10:34;;;;;;;4.17;3.27;;;13.40;99.90;;;;;;5015791;28;20185;-39
2022/05/15 00:13:00;;;;;;;4.63;3.67;;;13.40;99.90;;;;;;4999120;28;20193;-38
2022/05/15 00:15:26;;;;;;;4.33;3.50;;;13.40;99.90;;;;;;5015704;28;20191;-37
2022/05/15 00:17:52;;;;;;;5.70;3.57;;;13.30;99.90;;;;;;4999327;28;20228;-39
2022/05/15 00:20:18;;;;;;;5.00;3.77;;;13.20;99.90;;;;;;5013419;28;20193;-39
2022/05/15 00:22:44;;;;;;;4.67;3.80;;;13.10;99.90;;;;;;4979881;28;20343;-39
2022/05/15 00:25:11;;;;;;;5.80;3.77;;;13.00;99.90;;;;;;5014056;28;20222;-38
2022/05/15 00:27:37;;;;;;;5.17;4.17;;;12.90;99.90;;;;;;4996093;28;20216;-36
2022/05/15 00:30:03;;;;;;;6.07;4.00;;;12.90;99.90;;;;;;4995865;28;20186;-38
2022/05/15 00:32:29;;;;;;;5.70;3.93;;;13.00;99.90;;;;;;5013017;28;20228;-41
2022/05/15 00:34:54;;;;;;;6.70;4.07;;;13.00;99.90;;;;;;4998899;28;20211;-39
2022/05/15 00:37:21;;;;;;;5.03;3.80;;;12.90;99.90;;;;;;4999134;28;20279;-38
2022/05/15 00:39:47;;;;;;;5.10;3.43;;;13.00;99.90;;;;;;4998774;28;20311;-36
2022/05/15 00:42:13;;;;;;;5.90;3.63;;;13.10;99.90;;;;;;4998694;28;20209;-38
2022/05/15 00:44:40;;;;;;;5.33;4.33;;;13.10;99.90;;;;;;5014995;28;20182;-39
2022/05/15 00:47:06;;;;;;;8.97;5.47;;;13.00;99.90;;;;;;4998559;28;20238;-38
2022/05/15 00:49:34;;;;;;;4.83;3.93;;;12.90;99.90;;;;;;4999386;28;20182;-36
2022/05/15 00:52:09;;;;;;;6.77;4.00;;;12.90;99.90;;;;;;5014430;28;20255;-38
2022/05/15 00:54:49;;;;;;;6.50;3.80;;;13.00;99.90;;;;;;5014839;28;20189;-38
2022/05/15 00:57:36;;;;;;;4.70;3.50;;;12.90;99.90;;;;;;5015027;28;20178;-39
2022/05/15 01:00:09;;;;;;;6.20;4.00;;;12.90;99.90;;;;;;5015346;28;20215;-38
2022/05/15 01:02:43;;;;;;;5.87;4.10;;;12.90;99.90;;;;;;5015048;28;20200;-38
2022/05/15 01:05:11;;;;;;;5.83;4.97;;;12.80;99.90;;;;;;5014337;28;20184;-38
2022/05/15 01:07:37;;;;;;;6.40;4.97;;;12.70;99.90;;;;;;5014998;28;20180;-37
2022/05/15 01:10:06;;;;;;;7.20;4.53;;;12.70;99.90;;;;;;4998733;28;20224;-37
2022/05/15 01:12:35;;;;;;;8.47;4.57;;;12.50;99.90;;;;;;5007927;28;20257;-37
2022/05/15 01:15:01;;;;;;;7.07;4.33;;;12.40;99.90;;;;;;4979173;28;20180;-37
2022/05/15 01:17:29;;;;;;;4.80;4.33;;;12.20;99.90;;;;;;4989409;28;20184;-37
2022/05/15 01:20:06;;;;;;;5.73;4.27;;;12.20;99.90;;;;;;5011105;28;20232;-37
2022/05/15 01:22:32;;;;;;;4.33;3.93;;;12.10;99.90;;;;;;4998021;28;20232;-38
2022/05/15 01:25:00;;;;;;;4.30;3.67;;;12.20;99.90;;;;;;5014856;28;20294;-40
2022/05/15 01:27:26;;;;;;;5.57;4.17;;;12.20;99.90;;;;;;4998093;28;20179;-39
2022/05/15 01:29:52;;;;;;;5.07;4.00;;;12.20;99.90;;;;;;5014049;28;20175;-37
2022/05/15 01:32:23;;;;;;;4.70;3.97;;;12.20;99.90;;;;;;5014168;28;20197;-39
2022/05/15 01:34:48;;;;;;;5.50;4.03;;;12.10;99.90;;;;;;5013743;28;20194;-38
2022/05/15 01:37:14;;;;;;;5.73;4.33;;;12.20;99.90;;;;;;5032218;28;20181;-39
2022/05/15 01:39:40;;;;;;;5.17;4.03;;;12.20;99.90;;;;;;4997632;28;20214;-37
2022/05/15 01:42:06;;;;;;;5.17;3.60;;;12.20;99.90;;;;;;4997838;28;20203;-37
2022/05/15 01:44:34;;;;;;;5.60;4.37;;;12.10;99.90;;;;;;5014128;28;20185;-39
2022/05/15 01:47:00;;;;;;;6.33;4.60;;;12.10;99.90;;;;;;5014031;28;20180;-41
2022/05/15 01:49:26;;;;;;;5.20;3.97;;;11.90;99.90;;;;;;5013796;28;20189;-38
2022/05/15 01:51:53;;;;;;;4.57;3.57;;;11.80;99.90;;;;;;5013945;28;20204;-37
2022/05/15 01:54:21;;;;;;;9.87;4.63;;;11.70;99.90;;;;;;4997391;28;20183;-39
2022/05/15 01:56:47;;;;;;;7.53;4.50;;;11.70;99.90;;;;;;5031746;28;20681;-38
2022/05/15 01:59:13;;;;;;;8.17;4.00;;;11.70;99.90;;;;;;4996525;28;20209;-38
2022/05/15 02:01:40;;;;;;;5.20;4.00;;;11.70;99.90;;;;;;4997894;28;20256;-38
2022/05/15 02:04:08;;;;;;;5.90;4.30;;;11.60;99.90;;;;;;4997160;28;20283;-38
2022/05/15 02:06:36;;;;;;;7.47;4.13;;;11.50;99.90;;;;;;4997246;28;20201;-40
2022/05/15 02:09:03;;;;;;;5.00;4.23;;;11.50;99.90;;;;;;4996821;28;20190;-40
2022/05/15 02:11:29;;;;;;;5.13;4.10;;;11.50;99.90;;;;;;4997074;28;20206;-37
2022/05/15 02:13:55;;;;;;;4.60;3.60;;;11.50;99.90;;;;;;4996326;28;20178;-37
2022/05/15 02:16:22;;;;;;;4.67;3.93;;;11.50;99.90;;;;;;4997546;28;20183;-38
2022/05/15 02:18:48;;;;;;;6.07;4.20;;;11.50;99.90;;;;;;4996701;28;20261;-40
2022/05/15 02:21:15;;;;;;;5.93;4.37;;;11.40;99.90;;;;;;4997600;28;20233;-40
2022/05/15 02:23:41;;;;;;;6.10;4.13;;;11.30;99.90;;;;;;4996372;28;20228;-39
2022/05/15 02:26:07;;;;;;;7.50;4.30;;;11.30;99.90;;;;;;5013904;28;20178;-37
2022/05/15 02:28:33;;;;;;;4.80;4.30;;;11.30;99.90;;;;;;5012097;28;20182;-40
2022/05/15 02:31:00;;;;;;;4.53;4.13;;;11.30;99.90;;;;;;4997021;28;20189;-36
2022/05/15 02:33:26;;;;;;;5.40;4.40;;;11.30;99.90;;;;;;4996176;28;20678;-38
2022/05/15 02:35:52;;;;;;;5.70;4.20;;;11.30;99.90;;;;;;5039619;23;20264;-41
2022/05/15 02:38:19;;;;;;;8.80;4.33;;;11.30;99.90;;;;;;4991488;28;20207;-41
2022/05/15 02:40:45;;;;;;;6.80;4.20;;;11.40;99.90;;;;;;4992638;28;20192;-41
2022/05/15 02:43:12;;;;;;;5.47;4.20;;;11.40;99.90;;;;;;5011229;28;20183;-41
2022/05/15 02:45:38;;;;;;;6.57;4.03;;;11.40;99.90;;;;;;4989374;28;20203;-42
2022/05/15 02:51:03;;;;;;;6.20;4.07;;;11.30;99.90;;;;;;4993969;28;20184;-39
2022/05/15 02:51:03;;;;;;;5.80;3.90;;;11.30;99.90;;;;;;5009663;28;20190;-41
2022/05/15 02:53:36;;;;;;;7.10;4.10;;;11.30;99.90;;;;;;5010200;28;20206;-42
2022/05/15 02:56:13;;;;;;;5.83;4.27;;;11.10;99.90;;;;;;5008027;28;20649;-39
2022/05/15 02:58:39;;;;;;;5.97;4.10;;;11.20;99.90;;;;;;5009638;28;20264;-41
2022/05/15 03:01:05;;;;;;;5.60;3.87;;;11.10;99.90;;;;;;5009263;28;20179;-42
2022/05/15 03:03:32;;;;;;;5.00;3.87;;;11.10;99.90;;;;;;5009427;28;20207;-36
2022/05/15 03:05:58;;;;;;;6.10;4.00;;;11.20;99.90;;;;;;5008921;28;20195;-40
2022/05/15 03:08:25;;;;;;;5.50;4.20;;;11.10;99.90;;;;;;4993262;28;20262;-42
2022/05/15 03:10:52;;;;;;;6.33;4.13;;;11.10;99.90;;;;;;4994399;28;20186;-41
2022/05/15 03:13:18;;;;;;;4.37;3.77;;;11.10;99.90;;;;;;4997558;28;20265;-41
2022/05/15 03:15:44;;;;;;;4.10;3.50;;;11.10;99.90;;;;;;5012019;28;20322;-42
2022/05/15 03:18:10;;;;;;;5.23;4.00;;;11.00;99.90;;;;;;4996799;28;20205;-39
2022/05/15 03:20:37;;;;;;;5.53;4.07;;;11.00;99.90;;;;;;5012901;28;20213;-40
2022/05/15 03:23:03;;;;;;;7.57;4.27;;;10.90;99.90;;;;;;4996781;28;20180;-40
2022/05/15 03:25:31;;;;;;;4.70;3.77;;;10.90;99.90;;;;;;4996723;28;20211;-41
2022/05/15 03:27:57;;;;;;;4.53;3.97;;;10.90;99.90;;;;;;5013080;28;20222;-42
2022/05/15 03:30:24;;;;;;;4.70;4.10;;;10.80;99.90;;;;;;5013331;28;20351;-42
2022/05/15 03:32:50;;;;;;;4.87;4.07;;;10.80;99.90;;;;;;4996356;28;20187;-41
2022/05/15 03:35:16;;;;;;;6.37;4.40;;;10.80;99.90;;;;;;5013402;28;20211;-41
2022/05/15 03:37:43;;;;;;;5.90;4.17;;;10.70;99.90;;;;;;5012719;28;20186;-41
2022/05/15 03:40:15;;;;;;;4.83;4.37;;;10.70;99.90;;;;;;5013535;28;20186;-42
2022/05/15 03:42:42;;;;;;;4.87;3.97;;;10.80;99.90;;;;;;5011769;28;20175;-40
2022/05/15 03:45:09;;;;;;;6.17;4.23;;;10.80;99.90;;;;;;4996933;28;20691;-41
2022/05/15 03:47:37;;;;;;;8.00;4.40;;;10.80;99.90;;;;;;5012404;28;20172;-42
2022/05/15 03:50:07;;;;;;;4.30;3.70;;;10.80;99.90;;;;;;5013122;28;20189;-41
2022/05/15 03:52:34;;;;;;;4.53;3.80;;;10.80;99.90;;;;;;5013256;28;20318;-42
2022/05/15 03:55:01;;;;;;;4.67;3.93;;;10.80;99.90;;;;;;4996876;28;20273;-41
2022/05/15 03:57:27;;;;;;;4.83;4.30;;;10.80;99.90;;;;;;5011911;28;20264;-41
2022/05/15 03:59:53;;;;;;;4.90;4.40;;;10.80;99.90;;;;;;5012777;28;20183;-42
2022/05/15 04:02:19;;;;;;;6.03;4.27;;;10.70;99.90;;;;;;5012484;28;20183;-41
2022/05/15 04:04:45;;;;;;;7.07;4.33;;;10.60;99.90;;;;;;4996211;28;20222;-41
2022/05/15 04:07:11;;;;;;;7.33;4.50;;;10.60;99.90;;;;;;4995445;28;20361;-41
2022/05/15 04:09:40;;;;;;;8.93;4.33;;;10.60;99.90;;;;;;4996201;28;20194;-42
2022/05/15 04:12:12;;;;;;;6.70;4.40;;;10.60;99.90;;;;;;5012441;28;20187;-40
2022/05/15 04:14:38;;;;;;;5.27;3.90;;;10.50;99.90;;;;;;5012555;28;20267;-41
2022/05/15 04:17:05;;;;;;;4.80;3.53;;;10.60;99.90;;;;;;5011738;28;20277;-39
2022/05/15 04:19:33;;;;;;;5.27;3.83;;;10.60;99.90;;;;;;5012111;28;20589;-42
2022/05/15 04:22:02;;;;;;;9.53;4.10;;;10.60;99.90;;;;;;5011089;28;20177;-42
2022/05/15 04:24:29;;;;;;;5.03;3.93;;;10.60;99.90;;;;;;5011735;28;20219;-41
2022/05/15 04:26:55;;;;;;;4.63;4.07;;;10.70;99.90;;;;;;5012365;28;20180;-41
2022/05/15 04:29:21;;;;;;;4.77;4.03;;;10.80;99.90;;;;;;5011855;28;20187;-42
2022/05/15 04:31:47;;;;;;;5.83;4.47;;;10.80;99.90;;;;;;4996255;28;20282;-41
2022/05/15 04:34:13;;;;;;;4.40;4.00;;;10.90;99.90;;;;;;5011376;28;20211;-42
2022/05/15 04:36:39;;;;;;;4.70;4.10;;;10.90;99.90;;;;;;4996162;28;20189;-41
2022/05/15 04:39:05;;;;;;;4.37;3.73;;;10.80;99.90;;;;;;4994770;28;20203;-42
2022/05/15 04:41:32;;;;;;;4.47;4.03;;;10.80;99.90;;;;;;5012088;28;20206;-38
2022/05/15 04:43:58;;;;;;;7.03;4.20;;;10.80;99.90;;;;;;4995073;28;20199;-41
2022/05/15 04:46:27;;;;;;;5.93;3.97;;;10.80;99.90;;;;;;5011562;28;20179;-39
2022/05/15 04:48:53;;;;;;;5.20;4.20;;;10.70;99.90;;;;;;5012817;28;20187;-42
2022/05/15 04:51:19;;;;;;;4.40;4.00;;;10.80;99.90;;;;;;5011262;28;20179;-42
2022/05/15 04:53:45;;;;;;;5.83;4.23;;;10.90;99.90;;;;;;5011868;28;20172;-38
2022/05/15 04:56:11;;;;;;;5.83;4.00;;;11.00;99.90;;;;;;4995405;28;20190;-41
2022/05/15 04:58:36;;;;;;;4.60;4.13;;;11.10;99.90;;;;;;4995056;28;20604;-42
2022/05/15 05:01:02;;;;;;;6.50;4.20;;;11.20;99.90;;;;;;5012607;28;20313;-38
2022/05/15 05:03:28;;;;;;;4.93;3.83;;;11.30;99.90;;;;;;5012663;28;20171;-42
2022/05/15 05:05:54;;;;;;;5.87;3.80;;;11.40;99.90;;;;;;5012447;28;20203;-42
2022/05/15 05:08:20;;;;;;;4.00;3.60;;;11.50;99.90;;;;;;5011373;28;20210;-41
2022/05/15 05:10:46;;;;;;;5.20;3.63;;;11.60;99.90;;;;;;5010750;28;20183;-42
2022/05/15 05:13:13;;;;;;;5.60;3.80;;;11.70;99.90;;;;;;4994473;28;20184;-39
2022/05/15 05:15:39;;;;;;;6.60;3.73;;;11.80;99.90;;;;;;4994708;28;20208;-41
2022/05/15 05:18:06;;;;;;;6.10;3.80;;;11.80;99.90;;;;;;4995230;28;20249;-38
2022/05/15 05:20:32;;;;;;;4.97;3.60;;;11.80;99.90;;;;;;5010211;28;20183;-41
2022/05/15 05:22:58;;;;;;;4.37;3.30;;;12.00;99.90;;;;;;4994675;28;20176;-42
2022/05/15 05:25:24;;;;;;;6.03;3.47;;;12.00;99.90;;;;;;4994486;28;20334;-41
2022/05/15 05:27:50;;;;;;;6.23;3.23;;;12.10;99.90;;;;;;5010618;28;20273;-42
2022/05/15 05:30:19;;;;;;;7.77;3.40;;;12.30;99.90;;;;;;4990735;28;20200;-41
2022/05/15 05:32:46;;;;;;;3.67;3.20;;;12.30;99.90;;;;;;5007965;28;20177;-41
2022/05/15 05:35:14;;;;;;;6.40;3.73;;;12.40;99.90;;;;;;5010359;28;20314;-42
2022/05/15 05:37:40;;;;;;;4.73;3.37;;;12.50;99.90;;;;;;4994813;28;20185;-42
2022/05/15 05:40:07;;;;;;;4.40;3.27;;;12.60;99.90;;;;;;5010132;28;20184;-42
2022/05/15 05:42:33;;;;;;;4.63;3.43;;;12.70;99.90;;;;;;5012412;28;20182;-41
2022/05/15 05:45:00;;;;;;;4.03;3.40;;;12.80;99.90;;;;;;5011801;28;20200;-42
2022/05/15 05:47:27;;;;;;;6.57;3.63;;;12.90;99.90;;;;;;4994451;28;20194;-42
2022/05/15 05:49:54;;;;;;;3.77;3.30;;;13.10;99.90;;;;;;5010202;28;20181;-42
2022/05/15 05:52:21;;;;;;;6.83;3.40;;;13.30;99.90;;;;;;5010229;28;20282;-42
2022/05/15 05:54:47;;;;;;;3.73;3.33;;;13.30;99.90;;;;;;5010173;28;20566;-42
2022/05/15 05:57:13;;;;;;;3.80;3.40;;;13.40;99.90;;;;;;4994254;28;20212;-41
2022/05/15 05:59:40;;;;;;;4.60;3.10;;;13.50;99.90;;;;;;4993261;28;20214;-41
2022/05/15 06:02:07;;;;;;;5.17;3.90;;;13.70;99.90;;;;;;5010719;28;20207;-42
2022/05/15 06:04:40;;;;;;;7.07;3.73;;;13.80;99.90;;;;;;5010281;28;20221;-40
2022/05/15 06:07:12;;;;;;;4.33;3.50;;;13.90;99.90;;;;;;5010650;28;20198;-42
2022/05/15 06:09:40;;;;;;;5.80;3.83;;;14.00;99.90;;;;;;5009605;28;20273;-42
2022/05/15 06:12:06;;;;;;;5.97;3.80;;;14.10;99.90;;;;;;5010676;28;20178;-42
2022/05/15 06:14:32;;;;;;;4.80;3.47;;;14.20;99.90;;;;;;5011736;28;20399;-42
2022/05/15 06:16:59;;;;;;;8.67;3.50;;;14.20;99.90;;;;;;5010567;28;20292;-42
2022/05/15 06:19:25;;;;;;;4.40;4.00;;;14.20;99.90;;;;;;5009553;28;20206;-42
2022/05/15 06:21:51;;;;;;;4.53;3.80;;;14.30;99.90;;;;;;4994276;28;20187;-42
2022/05/15 06:24:17;;;;;;;4.33;3.93;;;14.40;99.90;;;;;;5010557;28;20198;-41
2022/05/15 06:26:43;;;;;;;5.33;3.80;;;14.50;99.90;;;;;;5010451;28;20729;-42
2022/05/15 06:29:09;;;;;;;3.93;3.53;;;14.60;99.90;;;;;;5008650;28;20262;-41
2022/05/15 06:31:35;;;;;;;6.20;4.03;;;14.70;99.90;;;;;;5009593;28;20183;-42
2022/05/15 06:34:01;;;;;;;5.40;3.50;;;14.80;99.90;;;;;;5009387;28;20722;-42
2022/05/15 06:36:27;;;;;;;4.87;3.70;;;14.90;99.90;;;;;;5008909;28;20690;-39
2022/05/15 06:38:53;;;;;;;5.17;3.70;;;15.00;99.90;;;;;;5000829;28;20206;-41
2022/05/15 06:41:19;;;;;;;4.23;3.23;;;15.20;99.90;;;;;;5009393;28;20598;-42
2022/05/15 06:43:45;;;;;;;6.73;3.97;;;15.50;99.90;;;;;;4999436;28;20245;-41
2022/05/15 06:46:11;;;;;;;3.83;3.30;;;15.70;99.90;;;;;;5008869;28;20190;-41
2022/05/15 06:48:39;;;;;;;4.57;3.50;;;15.70;99.90;;;;;;5009615;28;20682;-42
2022/05/15 06:51:06;;;;;;;4.10;3.47;;;15.90;99.90;;;;;;5010287;28;20183;-42
2022/05/15 06:53:33;;;;;;;4.57;3.47;;;16.10;99.90;;;;;;4992112;28;20194;-42
2022/05/15 06:58:44;;;;;;;5.87;3.60;;;16.50;99.90;;;;;;5009679;28;20763;-41
2022/05/15 07:01:10;;;;;;;3.90;3.50;;;16.70;99.90;;;;;;5008792;28;20180;-42
2022/05/15 07:03:36;;;;;;;3.93;3.60;;;16.80;99.90;;;;;;5009564;28;20172;-42
2022/05/15 07:06:02;;;;;;;4.60;3.33;;;16.90;99.90;;;;;;5009042;28;20198;-41
2022/05/15 07:08:28;;;;;;;5.80;3.70;;;17.10;99.90;;;;;;5009562;28;20185;-40
2022/05/15 07:10:54;;;;;;;6.53;3.80;;;17.30;99.90;;;;;;4991423;28;20183;-42
2022/05/15 07:13:21;;;;;;;5.53;3.57;;;17.40;99.90;;;;;;5010503;28;20191;-42
2022/05/15 07:15:47;;;;;;;4.28;3.63;;;17.50;99.90;;;;;;5008851;28;20227;-42
2022/05/15 07:18:13;;;;;;;4.88;3.55;;;17.70;99.90;;;;;;4992568;28;20234;-42
2022/05/15 07:20:41;;;;;;;3.42;3.13;;;17.80;99.90;;;;;;5008565;28;20179;-41
2022/05/15 07:23:07;;;;;;;5.30;3.42;;;17.90;99.90;;;;;;5009264;28;20179;-42
2022/05/15 07:25:33;;;;;;;4.75;3.55;;;18.00;99.90;;;;;;4992465;28;20207;-42
2022/05/15 07:27:59;;;;;;;3.65;3.30;;;18.10;99.90;;;;;;5009418;28;20198;-42
2022/05/15 07:30:25;;;;;;;4.20;3.05;;;18.00;99.90;;;;;;5006968;28;20236;-41
2022/05/15 07:32:51;;;;;;;4.38;3.38;;;18.10;99.90;;;;;;5010274;28;20204;-43
2022/05/15 07:35:19;;;;;;;4.72;3.60;;;18.30;99.90;;;;;;5008638;28;20217;-42
2022/05/15 07:37:45;;;;;;;7.05;3.42;;;18.40;99.90;;;;;;4992798;28;20202;-41
2022/05/15 07:40:11;;;;;;;4.88;3.03;;;18.40;99.90;;;;;;4991646;28;20179;-40
2022/05/15 07:42:39;;;;;;;7.47;3.70;;;18.60;99.90;;;;;;5003387;28;20241;-42
2022/05/15 07:45:05;;;;;;;5.38;3.20;;;18.90;99.90;;;;;;4992479;28;20226;-42
2022/05/15 07:47:31;;;;;;;5.13;3.65;;;19.10;99.90;;;;;;4992483;28;20572;-42
2022/05/15 07:49:58;;;;;;;6.57;3.40;;;19.30;99.90;;;;;;5010091;28;20183;-42
2022/05/15 07:52:24;;;;;;;4.78;3.50;;;19.30;99.90;;;;;;5008689;28;20203;-42
2022/05/15 07:54:50;;;;;;;4.45;3.20;;;19.40;99.90;;;;;;5008728;28;20205;-42
2022/05/15 07:57:17;;;;;;;7.55;3.40;;;19.60;99.90;;;;;;5017145;28;20175;-42
2022/05/15 07:59:43;;;;;;;4.80;3.53;;;19.80;99.90;;;;;;5011566;28;20199;-41
2022/05/15 08:02:09;;;;;;;4.70;3.30;;;19.80;99.90;;;;;;5013786;28;20202;-42
2022/05/15 08:10:09;;;;;;;6.35;3.10;;;20.20;99.90;;;;;;5012647;28;20298;-42
2022/05/15 08:12:35;;;;;;;4.22;2.80;;;20.30;99.90;;;;;;5011970;28;20179;-42
2022/05/15 08:15:04;;;;;;;3.60;2.83;;;20.40;99.90;;;;;;4993520;28;20248;-42
2022/05/15 08:17:30;;;;;;;4.40;3.10;;;20.50;99.90;;;;;;5021456;28;20198;-42
2022/05/15 08:25:26;;;;;;;4.53;3.25;;;20.80;99.90;;;;;;5013650;28;20214;-43
2022/05/15 08:27:51;;;;;;;6.78;3.40;;;21.00;99.90;;;;;;5014507;28;20176;-43
2022/05/15 08:30:19;;;;;;;5.28;3.20;;;21.20;99.90;;;;;;5014243;28;20182;-42
2022/05/15 08:32:46;;;;;;;3.80;2.60;;;21.20;99.90;;;;;;5012051;28;20191;-43
2022/05/15 08:35:12;;;;;;;5.13;2.90;;;21.50;99.90;;;;;;5041981;22;20233;-39
2022/05/15 08:37:40;;;;;;;3.53;2.38;;;21.70;99.90;;;;;;5001636;28;20185;-40
2022/05/15 08:40:06;;;;;;;4.10;2.65;;;22.00;99.90;;;;;;5018479;28;20186;-39
2022/05/15 08:42:42;;;;;;;3.17;2.25;;;22.30;99.90;;;;;;5033049;28;20171;-39
2022/05/15 08:45:13;;;;;;;2.80;2.30;;;22.40;99.90;;;;;;4999036;28;20194;-39
2022/05/15 08:47:45;;;;;;;4.40;2.70;;;22.60;99.90;;;;;;4991427;28;20179;-38
2022/05/15 08:50:15;;;;;;;4.97;2.83;;;22.60;99.90;;;;;;4991538;28;20181;-39
2022/05/15 08:53:00;;;;;;;3.67;2.13;;;22.60;99.90;;;;;;5021265;28;20229;-40
2022/05/15 08:55:36;;;;;;;2.85;2.53;;;22.90;99.90;;;;;;5017052;28;20206;-38
2022/05/15 08:58:13;;;;;;;3.65;2.30;;;23.00;99.90;;;;;;5012932;28;20202;-40
2022/05/15 09:00:46;;;;;;;2.83;2.40;;;23.20;99.90;;;;;;5021108;28;20597;-42
2022/05/15 09:03:23;;;;;;;4.40;2.20;;;23.30;99.90;;;;;;5013001;28;20179;-39
2022/05/15 09:05:55;;;;;;;2.90;2.08;;;23.50;99.90;;;;;;5006241;28;20204;-44
2022/05/15 09:08:49;;;;;;;4.22;2.40;;;23.80;99.90;;;;;;5003792;28;20179;-40
2022/05/15 09:11:31;;;;;;;3.95;2.25;;;23.90;99.90;;;;;;5028872;28;20243;-40
2022/05/15 09:14:11;;;;;;;4.70;2.53;;;24.20;99.90;;;;;;4991904;28;20662;-40
2022/05/15 09:16:51;;;;;;;3.20;2.22;;;24.50;99.90;;;;;;5004000;28;20179;-40
2022/05/15 09:19:17;;;;;;;3.72;2.38;;;24.60;99.90;;;;;;5018603;28;20284;-44
2022/05/15 09:21:43;;;;;;;4.65;2.30;;;24.80;99.90;;;;;;4998251;28;20183;-39
2022/05/15 09:24:24;;;;;;;4.25;2.25;;;24.80;99.90;;;;;;5002170;28;20214;-41
2022/05/15 09:26:50;;;;;;;4.53;2.53;;;24.70;99.90;;;;;;5004112;28;20183;-42
2022/05/15 09:29:26;;;;;;;5.05;2.60;;;24.70;99.90;;;;;;4986782;28;20208;-42
2022/05/15 09:31:52;;;;;;;3.15;2.20;;;24.70;99.90;;;;;;5007734;28;20197;-41
2022/05/15 09:34:23;;;;;;;3.70;2.03;;;24.50;99.90;;;;;;5008833;28;20190;-41
2022/05/15 09:36:52;;;;;;;2.55;2.08;;;24.60;99.90;;;;;;5014791;28;20181;-40
2022/05/15 09:39:42;;;;;;;4.45;2.10;;;24.70;99.90;;;;;;5013975;28;20306;-40
2022/05/15 09:45:10;;;;;;;2.80;2.20;;;25.20;99.90;;;;;;5003988;28;20207;-40
2022/05/15 09:47:37;;;;;;;2.97;1.98;;;25.40;99.90;;;;;;5014374;28;20194;-42
2022/05/15 09:50:09;;;;;;;2.63;2.20;;;25.50;99.90;;;;;;5000634;28;20262;-44
2022/05/15 09:52:41;;;;;;;4.35;2.00;;;25.70;99.90;;;;;;4978126;28;20184;-43
2022/05/15 09:55:29;;;;;;;3.08;2.00;;;25.90;99.90;;;;;;4978182;28;20281;-45
2022/05/15 09:58:01;;;;;;;3.13;1.95;;;26.00;99.90;;;;;;4994278;28;20227;-39
2022/05/15 10:00:29;;;;;;;3.47;1.73;;;26.10;99.90;;;;;;4994149;28;20183;-41
2022/05/15 10:03:04;;;;;;;4.38;2.10;;;26.30;99.90;;;;;;5002566;28;20166;-44
2022/05/15 10:05:33;;;;;;;2.05;1.65;;;26.40;99.90;;;;;;5013981;28;20238;-42
2022/05/15 10:08:28;;;;;;;2.95;1.98;;;26.60;99.90;;;;;;5047005;28;20208;-45
2022/05/15 10:11:06;;;;;;;3.83;2.00;;;26.70;99.60;;;;;;5028339;28;20269;-41
2022/05/15 10:13:34;;;;;;;3.22;2.00;;;26.70;99.30;;;;;;5013536;28;20194;-45
2022/05/15 10:16:09;;;;;;;3.28;1.90;;;26.90;99.90;;;;;;5013605;28;20198;-45
2022/05/15 10:18:52;;;;;;;3.38;2.00;;;26.90;99.00;;;;;;5030073;28;20270;-44
2022/05/15 10:21:19;;;;;;;4.15;1.95;;;27.10;98.60;;;;;;5029502;28;20178;-41
2022/05/15 10:23:55;;;;;;;3.55;2.22;;;27.20;99.10;;;;;;4997183;28;20183;-42
2022/05/15 10:26:45;;;;;;;3.63;2.00;;;27.30;99.00;;;;;;4996642;28;20249;-40
2022/05/15 10:29:36;;;;;;;2.53;2.08;;;27.40;98.70;;;;;;4977613;28;20187;-40
2022/05/15 10:32:42;;;;;;;3.78;2.05;;;27.60;98.70;;;;;;4993736;28;20214;-40
2022/05/15 10:35:13;;;;;;;4.15;2.05;;;27.70;98.10;;;;;;4993711;28;20230;-41
2022/05/15 10:37:54;;;;;;;3.25;2.05;;;27.70;97.00;;;;;;4977612;28;20186;-42
2022/05/15 10:40:26;;;;;;;3.47;1.98;;;27.80;97.00;;;;;;4993575;28;20183;-42
2022/05/15 10:42:57;;;;;;;4.05;2.08;;;27.80;96.70;;;;;;5011248;28;20226;-42
2022/05/15 10:46:01;;;;;;;6.07;1.90;;;27.80;96.40;;;;;;5011398;28;20206;-41
2022/05/15 10:48:41;;;;;;;3.28;1.85;;;27.90;96.70;;;;;;4993763;28;20232;-41
2022/05/15 10:51:16;;;;;;;2.97;2.03;;;28.00;96.90;;;;;;4977204;28;20187;-45
2022/05/15 10:59:53;;;;;;;2.53;1.98;;;28.40;96.20;;;;;;5025436;28;20271;-37
2022/05/15 11:02:51;;;;;;;3.35;2.00;;;28.60;95.60;;;;;;4985946;28;20262;-37
2022/05/15 11:05:28;;;;;;;4.00;1.90;;;28.60;95.30;;;;;;4986908;28;20198;-40
2022/05/15 11:08:19;;;;;;;3.88;1.98;;;28.60;94.00;;;;;;4984880;28;20171;-39
2022/05/15 11:11:00;;;;;;;5.85;2.30;;;28.70;94.50;;;;;;5002753;28;20175;-41
2022/05/15 11:13:35;;;;;;;4.35;1.95;;;28.80;93.70;;;;;;4996036;28;20178;-36
2022/05/15 11:16:14;;;;;;;5.00;1.85;;;28.70;94.80;;;;;;5030610;28;20194;-37
2022/05/15 11:19:02;;;;;;;2.92;1.73;;;28.70;93.60;;;;;;5012634;28;20297;-38
2022/05/15 11:21:36;;;;;;;2.95;2.00;;;28.70;94.20;;;;;;5013426;28;20179;-38
2022/05/15 11:24:13;;;;;;;2.45;1.80;;;28.60;95.40;;;;;;5014071;28;20166;-40
2022/05/15 11:26:47;;;;;;;2.75;1.83;;;28.70;92.90;;;;;;5030696;28;20167;-38
2022/05/15 11:29:15;;;;;;;4.50;2.00;;;28.80;92.60;;;;;;5012888;28;20183;-39
2022/05/15 11:31:57;;;;;;;2.42;1.98;;;28.80;93.90;;;;;;5014228;28;20186;-38
2022/05/15 11:35:00;;;;;;;2.10;1.90;;;29.00;92.60;;;;;;5015953;28;20201;-39
2022/05/15 11:37:43;;;;;;;3.13;2.10;;;28.80;92.00;;;;;;5005634;28;20272;-40
2022/05/15 11:40:36;;;;;;;2.30;1.95;;;28.90;92.40;;;;;;5032783;28;20206;-38
2022/05/15 11:43:30;;;;;;;3.28;2.00;;;29.10;92.60;;;;;;5016432;28;20182;-40
2022/05/15 11:46:05;;;;;;;3.75;2.03;;;29.20;92.80;;;;;;5034016;28;20277;-41
2022/05/15 11:48:43;;;;;;;3.22;2.00;;;29.40;92.60;;;;;;5049532;28;20194;-42
2022/05/15 11:51:15;;;;;;;2.67;1.88;;;29.30;92.00;;;;;;5023337;28;20190;-40
2022/05/15 11:53:50;;;;;;;2.92;2.10;;;29.40;93.30;;;;;;5013374;28;20171;-41
2022/05/15 11:56:35;;;;;;;3.55;2.20;;;29.40;92.80;;;;;;5013095;28;20212;-39
2022/05/15 11:59:08;;;;;;;5.30;2.05;;;29.60;91.70;;;;;;5003821;28;20210;-42
2022/05/15 12:01:35;;;;;;;3.42;2.17;;;29.80;91.70;;;;;;4998370;28;20190;-41
2022/05/15 12:04:15;;;;;;;6.50;2.30;;;29.80;91.50;;;;;;5015045;28;20174;-40
2022/05/15 12:06:50;;;;;;;2.67;2.00;;;29.60;90.80;;;;;;4999524;28;20560;-43
2022/05/15 12:09:16;;;;;;;3.35;1.77;;;29.80;91.40;;;;;;5015917;28;20178;-41
2022/05/15 12:11:50;;;;;;;6.07;2.20;;;29.90;91.30;;;;;;5032831;28;20257;-40
2022/05/15 12:14:22;;;;;;;4.78;2.38;;;29.90;90.60;;;;;;5015813;28;20209;-40
2022/05/15 12:17:00;;;;;;;4.10;2.03;;;29.80;90.10;;;;;;5008744;28;20175;-42
2022/05/15 12:19:32;;;;;;;3.35;2.20;;;29.70;90.40;;;;;;5003537;28;20202;-37
2022/05/15 12:22:03;;;;;;;3.05;2.05;;;30.00;91.60;;;;;;5031044;28;20174;-39
2022/05/15 12:24:33;;;;;;;2.75;1.80;;;29.90;91.30;;;;;;4992729;28;20197;-42
2022/05/15 12:27:31;;;;;;;4.13;1.92;;;30.00;89.70;;;;;;5007725;28;20255;-37
2022/05/15 12:30:10;;;;;;;3.33;2.10;;;29.80;89.00;;;;;;5010222;28;20174;-38
2022/05/15 12:32:45;;;;;;;3.35;1.80;;;30.00;90.40;;;;;;4993788;28;20167;-42
2022/05/15 12:35:14;;;;;;;3.40;2.15;;;30.30;91.10;;;;;;5015208;28;20216;-37
2022/05/15 12:38:02;;;;;;;2.53;2.00;;;30.30;89.90;;;;;;5016048;28;20178;-39
2022/05/15 12:40:33;;;;;;;2.25;1.80;;;30.20;88.30;;;;;;4999234;28;20229;-40
2022/05/15 12:43:00;;;;;;;2.42;1.98;;;30.30;88.60;;;;;;5014758;28;20201;-39
2022/05/15 12:45:27;;;;;;;3.08;1.90;;;30.30;90.20;;;;;;5013637;28;20269;-40
2022/05/15 12:48:14;;;;;;;2.20;1.90;;;30.50;87.60;;;;;;4996987;28;20646;-38
2022/05/15 12:50:52;;;;;;;3.80;2.25;;;30.80;89.60;;;;;;5015334;28;20316;-39
2022/05/15 12:53:25;;;;;;;3.58;1.90;;;31.10;88.10;;;;;;5015472;28;20566;-44
2022/05/15 12:55:53;;;;;;;2.97;2.03;;;31.30;86.70;;;;;;4997675;28;20220;-39
2022/05/15 12:58:35;;;;;;;3.28;2.25;;;31.00;85.70;;;;;;5015003;28;20206;-41
2022/05/15 13:01:03;;;;;;;4.88;2.08;;;30.70;83.50;;;;;;5015125;28;20183;-39
2022/05/15 13:03:30;;;;;;;2.83;1.77;;;31.00;86.00;;;;;;5003647;28;20641;-39
2022/05/15 13:06:02;;;;;;;4.65;2.20;;;31.00;87.20;;;;;;4984679;28;20324;-40
2022/05/15 13:08:49;;;;;;;2.38;1.90;;;31.20;86.80;;;;;;5014968;28;20193;-42
2022/05/15 13:11:31;;;;;;;2.50;2.00;;;31.20;82.70;;;;;;4999164;28;20201;-39
2022/05/15 13:13:58;;;;;;;3.70;2.42;;;31.30;84.70;;;;;;5015396;28;20191;-37
2022/05/15 13:16:29;;;;;;;6.35;2.10;;;31.40;85.60;;;;;;5015281;28;20256;-39
2022/05/15 13:19:01;;;;;;;3.50;2.13;;;31.20;86.60;;;;;;5014762;28;20701;-38
2022/05/15 13:21:37;;;;;;;2.00;1.80;;;31.20;85.80;;;;;;5015042;28;20202;-43
2022/05/15 13:24:06;;;;;;;3.33;2.03;;;31.20;84.60;;;;;;5014699;28;20183;-41
2022/05/15 13:26:38;;;;;;;3.55;2.00;;;31.30;85.90;;;;;;5014551;28;20205;-40